Time;durP1;ratioP1;P1;durP2;ratioP2;P2;SDS_P1;SDS_P2;PMS_P1;PMS_P2;Temp;Humidity;BMP_temperature;BMP_pressure;BME280_temperature;BME280_humidity;BME280_pressure;Samples;Min_cycle;Max_cycle;Signal;HPM_P1;HPM_P2
2021/05/21 00:01:33;;;;;;;2.55;1.10;;;;;;;10.79;67.84;98636.19;5011366;28;20396;-73
2021/05/21 00:03:58;;;;;;;4.43;1.00;;;;;;;10.86;67.62;98634.31;5012609;28;20072;-75
2021/05/21 00:06:23;;;;;;;3.10;0.95;;;;;;;10.85;67.39;98641.63;4995439;28;20431;-73
2021/05/21 00:08:49;;;;;;;0.90;0.70;;;;;;;10.86;67.19;98637.03;5012464;28;20101;-75
2021/05/21 00:11:14;;;;;;;1.90;0.70;;;;;;;10.94;66.47;98634.09;5012767;28;20033;-73
2021/05/21 00:13:39;;;;;;;1.30;0.90;;;;;;;10.99;66.91;98647.00;5008409;28;20041;-74
2021/05/21 00:16:05;;;;;;;2.67;0.90;;;;;;;11.06;66.69;98634.31;5010337;28;20057;-74
2021/05/21 00:18:30;;;;;;;6.03;1.20;;;;;;;11.01;66.71;98640.34;4994794;28;20029;-74
2021/05/21 00:20:56;;;;;;;3.50;1.10;;;;;;;10.87;66.84;98609.75;5011281;28;20025;-73
2021/05/21 00:23:21;;;;;;;3.72;1.25;;;;;;;11.00;66.81;98627.84;5012231;28;20021;-73
2021/05/21 00:25:46;;;;;;;2.28;1.00;;;;;;;11.00;66.92;98638.66;4994590;28;20053;-74
2021/05/21 00:28:12;;;;;;;1.40;1.00;;;;;;;10.96;67.08;98629.31;4994689;28;20037;-74
2021/05/21 00:30:37;;;;;;;2.15;0.93;;;;;;;10.87;67.29;98619.75;5012612;28;20030;-74
2021/05/21 00:33:02;;;;;;;0.75;0.70;;;;;;;10.87;66.58;98608.91;5012759;28;20396;-74
2021/05/21 00:35:28;;;;;;;0.90;0.73;;;;;;;11.09;66.47;98614.94;5012652;28;20033;-74
2021/05/21 00:37:53;;;;;;;1.23;0.93;;;;;;;11.01;66.53;98612.44;5011353;28;20030;-74
2021/05/21 00:40:21;;;;;;;2.00;1.05;;;;;;;11.11;66.46;98623.69;4994977;28;20029;-74
2021/05/21 00:42:46;;;;;;;2.15;0.98;;;;;;;11.07;66.36;98615.13;5012250;28;20472;-74
2021/05/21 00:45:12;;;;;;;1.42;0.73;;;;;;;11.03;66.01;98600.38;4991404;28;20037;-74
2021/05/21 00:47:37;;;;;;;0.68;0.68;;;;;;;10.99;66.90;98609.94;4992970;28;20026;-74
2021/05/21 00:50:03;;;;;;;2.72;0.90;;;;;;;10.99;67.40;98620.78;4992169;28;20034;-74
2021/05/21 00:52:30;;;;;;;1.92;0.98;;;;;;;10.87;67.28;98598.09;4997891;28;20034;-74
2021/05/21 00:54:55;;;;;;;4.25;0.98;;;;;;;10.93;66.98;98594.56;5031223;28;20026;-74
2021/05/21 00:57:21;;;;;;;3.45;1.10;;;;;;;10.81;67.78;98570.00;5046312;28;20044;-74
2021/05/21 00:59:46;;;;;;;2.45;0.85;;;;;;;10.90;67.69;98567.91;5033022;28;20022;-74
2021/05/21 01:02:11;;;;;;;2.88;0.98;;;;;;;10.81;67.69;98548.34;5032976;28;20082;-74
2021/05/21 01:04:37;;;;;;;4.25;0.85;;;;;;;10.85;67.92;98573.13;5030643;28;20030;-74
2021/05/21 01:07:06;;;;;;;1.48;0.77;;;;;;;10.70;68.06;98571.47;5033056;28;20041;-73
2021/05/21 01:09:32;;;;;;;1.35;0.88;;;;;;;10.57;68.98;98571.47;5031843;28;20006;-74
2021/05/21 01:11:57;;;;;;;2.03;0.80;;;;;;;10.67;68.43;98563.78;5033859;28;20030;-74
2021/05/21 01:14:23;;;;;;;1.42;1.00;;;;;;;10.53;68.43;98562.97;5034066;28;20010;-73
2021/05/21 01:16:48;;;;;;;1.83;0.93;;;;;;;10.40;68.67;98560.25;5012588;28;20035;-74
2021/05/21 01:19:14;;;;;;;2.13;0.98;;;;;;;10.47;69.01;98574.59;5032336;28;20044;-74
2021/05/21 01:21:39;;;;;;;2.65;1.20;;;;;;;10.51;68.85;98545.28;5034341;28;20042;-74
2021/05/21 01:24:08;;;;;;;2.33;0.85;;;;;;;10.55;69.28;98561.91;5034653;28;20029;-74
2021/05/21 01:26:34;;;;;;;;;;;;;;;10.62;68.83;98560.88;5017538;28;20036;-74
2021/05/21 01:29:00;;;;;;;2.80;1.20;;;;;;;10.59;68.70;98547.75;5029275;28;19909;-74
2021/05/21 01:31:25;;;;;;;1.73;0.90;;;;;;;10.57;68.97;98539.03;5012177;28;20032;-76
2021/05/21 01:33:51;;;;;;;2.10;1.00;;;;;;;10.47;68.85;98525.09;5012117;28;20057;-75
2021/05/21 01:36:17;;;;;;;1.10;0.90;;;;;;;10.52;68.80;98514.47;5010775;28;20022;-75
2021/05/21 01:38:56;;;;;;;3.42;1.08;;;;;;;10.56;69.09;98539.22;5010479;28;20399;-74
2021/05/21 01:41:22;;;;;;;2.63;1.13;;;;;;;10.47;69.45;98525.91;4996478;28;20025;-74
2021/05/21 01:43:48;;;;;;;4.22;0.98;;;;;;;10.44;69.21;98533.63;4983709;28;20499;-74
2021/05/21 01:46:14;;;;;;;2.83;0.90;;;;;;;10.40;69.45;98524.25;5011804;28;20029;-74
2021/05/21 01:48:40;;;;;;;1.65;1.10;;;;;;;10.39;69.58;98531.53;5006737;28;20077;-74
2021/05/21 01:51:05;;;;;;;2.15;1.30;;;;;;;10.38;69.64;98518.25;4994926;28;20042;-75
2021/05/21 01:53:33;;;;;;;1.75;1.00;;;;;;;10.36;69.47;98517.63;5005478;28;20503;-74
2021/05/21 01:55:59;;;;;;;1.70;1.10;;;;;;;10.24;69.42;98491.19;5006077;28;20088;-75
2021/05/21 01:58:24;;;;;;;2.78;1.08;;;;;;;10.45;69.29;98511.78;5015251;28;20030;-74
2021/05/21 02:00:50;;;;;;;1.98;0.90;;;;;;;10.33;69.20;98508.03;4994507;28;20029;-74
2021/05/21 02:03:15;;;;;;;1.35;0.90;;;;;;;10.28;69.26;98483.50;4978152;28;20062;-74
2021/05/21 02:05:40;;;;;;;1.73;0.80;;;;;;;10.21;69.59;98494.28;4987411;28;20164;-74
2021/05/21 02:08:06;;;;;;;2.25;0.90;;;;;;;10.14;69.99;98498.03;4994298;28;20026;-74
2021/05/21 02:10:31;;;;;;;0.70;0.60;;;;;;;10.26;69.52;98496.38;5014824;28;20034;-74
2021/05/21 02:12:56;;;;;;;1.85;1.00;;;;;;;10.18;69.62;98478.47;5014482;28;20033;-75
2021/05/21 02:15:22;;;;;;;4.03;1.55;;;;;;;10.33;68.81;98472.06;5013979;28;20109;-74
2021/05/21 02:17:47;;;;;;;1.40;0.98;;;;;;;10.41;68.69;98474.56;5014832;28;20399;-75
2021/05/21 02:20:13;;;;;;;4.50;1.05;;;;;;;10.50;68.46;98492.19;4996873;28;20022;-75
2021/05/21 02:22:40;;;;;;;1.10;0.85;;;;;;;10.44;68.67;98487.66;5014658;28;20021;-74
2021/05/21 02:25:06;;;;;;;1.92;0.93;;;;;;;10.53;68.11;98480.97;4996915;28;20029;-74
2021/05/21 02:27:32;;;;;;;1.52;0.85;;;;;;;10.41;68.69;98471.84;4996438;28;20034;-74
2021/05/21 02:29:57;;;;;;;2.08;0.82;;;;;;;10.37;68.36;98466.00;5014453;28;20037;-74
2021/05/21 02:32:23;;;;;;;1.55;0.88;;;;;;;10.53;68.20;98464.72;4996650;28;20061;-74
2021/05/21 02:34:48;;;;;;;2.47;1.10;;;;;;;10.45;67.77;98455.00;4996047;28;20037;-74
2021/05/21 02:37:14;;;;;;;3.55;1.13;;;;;;;10.46;68.07;98453.13;4993536;28;20392;-74
2021/05/21 02:39:39;;;;;;;1.15;0.90;;;;;;;10.34;68.24;98438.56;5014263;28;20396;-74
2021/05/21 02:42:05;;;;;;;5.00;1.20;;;;;;;10.46;67.96;98436.88;5014486;28;20483;-74
2021/05/21 02:44:31;;;;;;;3.40;1.10;;;;;;;10.60;67.64;98467.44;4996435;28;20032;-74
2021/05/21 02:46:57;;;;;;;4.88;1.10;;;;;;;10.45;67.98;98440.63;5013274;28;20033;-74
2021/05/21 02:49:22;;;;;;;1.90;0.93;;;;;;;10.51;68.13;98451.44;5001805;28;20037;-75
2021/05/21 02:51:49;;;;;;;2.00;0.93;;;;;;;10.45;68.28;98435.22;5013926;28;20028;-74
2021/05/21 02:54:15;;;;;;;1.83;1.00;;;;;;;10.41;68.36;98440.22;4996372;28;20024;-74
2021/05/21 02:56:40;;;;;;;1.25;0.90;;;;;;;10.42;68.41;98441.03;5012599;28;20018;-74
2021/05/21 02:59:06;;;;;;;1.63;1.00;;;;;;;10.46;68.43;98445.81;5013118;28;20049;-74
2021/05/21 03:01:32;;;;;;;2.80;0.98;;;;;;;10.39;68.33;98427.94;4995495;28;20391;-74
2021/05/21 03:03:57;;;;;;;1.25;0.90;;;;;;;10.39;68.67;98438.75;4996253;28;20032;-74
2021/05/21 03:06:22;;;;;;;2.40;0.98;;;;;;;10.36;68.79;98431.09;5013802;28;20026;-74
2021/05/21 03:08:48;;;;;;;2.13;1.10;;;;;;;10.43;68.37;98437.31;5012512;28;20033;-74
2021/05/21 03:11:13;;;;;;;1.38;0.90;;;;;;;10.37;68.28;98405.69;5011991;28;20057;-74
2021/05/21 03:13:38;;;;;;;3.05;1.10;;;;;;;10.41;67.81;98401.53;5081817;22;20093;-74
2021/05/21 03:16:04;;;;;;;2.35;1.05;;;;;;;10.52;67.85;98411.69;5089409;28;20088;-75
2021/05/21 03:18:29;;;;;;;2.20;0.95;;;;;;;10.56;67.73;98393.16;5091861;28;20404;-74
2021/05/21 03:20:55;;;;;;;2.85;1.00;;;;;;;10.53;67.41;98386.28;5069942;28;20021;-74
2021/05/21 03:23:20;;;;;;;3.47;1.08;;;;;;;10.58;67.35;98386.47;5055122;28;20098;-75
2021/05/21 03:25:46;;;;;;;1.80;1.00;;;;;;;10.59;67.33;98381.94;5055223;28;20362;-75
2021/05/21 03:28:12;;;;;;;3.20;0.90;;;;;;;10.71;67.15;98394.53;5074077;28;20028;-75
2021/05/21 03:30:39;;;;;;;1.55;0.90;;;;;;;10.77;67.04;98398.28;5054738;28;20021;-75
2021/05/21 03:33:08;;;;;;;2.00;1.02;;;;;;;10.75;67.10;98384.97;5068573;28;20380;-74
2021/05/21 03:35:35;;;;;;;1.40;1.00;;;;;;;10.80;66.50;98378.91;5093216;28;20046;-74
2021/05/21 03:38:03;;;;;;;1.30;0.65;;;;;;;10.75;66.49;98376.84;5064625;28;20039;-75
2021/05/21 03:40:29;;;;;;;2.65;0.90;;;;;;;10.83;66.71;98389.31;5054906;28;20461;-75
2021/05/21 03:42:54;;;;;;;3.88;0.90;;;;;;;10.79;66.58;98381.81;5060219;28;20028;-75
2021/05/21 03:45:19;;;;;;;1.38;0.80;;;;;;;10.74;66.63;98375.19;5093028;28;20043;-75
2021/05/21 03:47:45;;;;;;;2.63;1.08;;;;;;;10.71;66.91;98372.91;5067958;28;20481;-74
2021/05/21 03:50:12;;;;;;;1.23;0.77;;;;;;;10.78;66.53;98367.47;5072677;28;20031;-75
2021/05/21 03:52:37;;;;;;;1.95;0.95;;;;;;;10.79;66.65;98373.72;5054732;28;20119;-74
2021/05/21 03:55:04;;;;;;;3.95;0.95;;;;;;;10.76;66.77;98372.25;5083286;28;20115;-74
2021/05/21 03:57:29;;;;;;;3.13;1.30;;;;;;;10.82;66.71;98386.81;5063874;28;20020;-75
2021/05/21 03:59:55;;;;;;;2.85;0.93;;;;;;;10.81;66.88;98379.75;5054904;28;20033;-75
2021/05/21 04:02:20;;;;;;;1.23;0.70;;;;;;;10.71;66.91;98370.19;5072440;28;20020;-74
2021/05/21 04:04:45;;;;;;;2.80;1.23;;;;;;;10.70;67.19;98368.53;5054655;28;20137;-74
2021/05/21 04:07:10;;;;;;;1.70;0.93;;;;;;;10.69;67.04;98360.66;5072033;28;20032;-74
2021/05/21 04:09:36;;;;;;;1.85;0.90;;;;;;;10.82;66.56;98384.09;5054381;28;20028;-74
2021/05/21 04:12:01;;;;;;;2.05;0.93;;;;;;;10.79;66.69;98363.72;5054173;28;20119;-75
2021/05/21 04:14:27;;;;;;;1.35;0.77;;;;;;;10.90;66.56;98375.75;5055351;28;20024;-74
2021/05/21 04:16:52;;;;;;;0.98;0.80;;;;;;;10.93;66.00;98372.63;5072122;28;20371;-75
2021/05/21 04:19:18;;;;;;;1.67;0.73;;;;;;;11.04;65.94;98361.09;5054251;28;20088;-74
2021/05/21 04:21:43;;;;;;;3.50;0.90;;;;;;;11.01;65.54;98358.81;5054167;28;20020;-75
2021/05/21 04:24:09;;;;;;;1.10;0.65;;;;;;;11.09;65.03;98355.84;5054195;28;20025;-74
2021/05/21 04:26:34;;;;;;;1.90;0.80;;;;;;;11.12;65.20;98338.34;5072562;28;20123;-74
2021/05/21 04:29:00;;;;;;;1.70;0.85;;;;;;;11.31;64.25;98352.78;5075430;28;20462;-74
2021/05/21 04:31:25;;;;;;;1.02;0.73;;;;;;;11.35;64.34;98341.31;5062786;28;20069;-74
2021/05/21 04:33:51;;;;;;;2.60;0.80;;;;;;;11.36;64.46;98340.25;5071813;28;20020;-74
2021/05/21 04:36:17;;;;;;;1.40;0.80;;;;;;;11.44;63.98;98338.31;5068988;28;20027;-74
2021/05/21 04:38:42;;;;;;;1.92;0.80;;;;;;;11.53;63.88;98345.97;5092016;28;20028;-74
2021/05/21 04:41:08;;;;;;;2.47;0.60;;;;;;;11.59;63.24;98341.53;5092263;28;20107;-69
2021/05/21 04:43:33;;;;;;;1.52;0.70;;;;;;;11.74;63.11;98350.16;5073183;28;20040;-70
2021/05/21 04:46:00;;;;;;;2.42;0.63;;;;;;;11.76;63.06;98350.78;5073259;28;20021;-71
2021/05/21 04:48:26;;;;;;;1.80;0.70;;;;;;;11.67;63.08;98325.00;5071947;28;20028;-71
2021/05/21 04:50:51;;;;;;;1.83;0.75;;;;;;;11.86;63.06;98344.88;5052947;28;20659;-71
2021/05/21 04:53:17;;;;;;;1.95;0.90;;;;;;;11.76;62.99;98337.22;5071725;28;20031;-70
2021/05/21 04:55:42;;;;;;;1.20;0.70;;;;;;;11.90;63.21;98335.25;5066901;28;20031;-70
2021/05/21 04:58:08;;;;;;;1.92;0.77;;;;;;;11.89;63.04;98336.28;5085692;28;20669;-69
2021/05/21 05:00:34;;;;;;;1.77;0.80;;;;;;;11.90;62.98;98327.13;5076924;28;20028;-71
2021/05/21 05:03:06;;;;;;;1.10;0.80;;;;;;;11.89;62.45;98320.03;5079122;28;20046;-72
2021/05/21 05:05:32;;;;;;;3.40;0.80;;;;;;;12.01;62.37;98331.78;5071506;28;20477;-75
2021/05/21 05:07:57;;;;;;;1.50;0.60;;;;;;;11.98;61.83;98324.13;5081304;28;20100;-73
2021/05/21 05:10:23;;;;;;;3.08;0.80;;;;;;;12.07;61.86;98325.47;5056266;28;20016;-73
2021/05/21 05:12:48;;;;;;;1.60;0.63;;;;;;;12.11;62.02;98306.88;5071728;28;20090;-74
2021/05/21 05:15:14;;;;;;;1.25;0.80;;;;;;;12.07;61.81;98313.78;5075000;28;20020;-69
2021/05/21 05:17:39;;;;;;;1.63;0.80;;;;;;;12.06;62.28;98294.00;5075428;28;20791;-71
2021/05/21 05:20:05;;;;;;;1.90;0.90;;;;;;;12.20;61.75;98318.25;5053697;28;20032;-72
2021/05/21 05:22:30;;;;;;;2.08;0.50;;;;;;;12.20;61.79;98313.66;5071631;28;20036;-69
2021/05/21 05:24:57;;;;;;;4.60;1.15;;;;;;;12.26;61.53;98312.75;5079771;28;20420;-72
2021/05/21 05:27:22;;;;;;;2.25;0.90;;;;;;;12.19;61.74;98289.47;5058835;28;20032;-73
2021/05/21 05:29:48;;;;;;;1.55;0.70;;;;;;;12.28;61.45;98293.53;5068697;28;20507;-74
2021/05/21 05:32:13;;;;;;;2.35;0.65;;;;;;;12.34;61.51;98273.66;5079140;28;20020;-74
2021/05/21 05:34:39;;;;;;;1.15;0.52;;;;;;;12.53;60.84;98287.19;5077494;28;20036;-71
2021/05/21 05:37:05;;;;;;;3.70;0.90;;;;;;;12.58;61.08;98277.31;5077496;28;20499;-75
2021/05/21 05:39:30;;;;;;;2.45;0.80;;;;;;;12.52;61.36;98274.66;5092749;28;20031;-72
2021/05/21 05:41:55;;;;;;;2.60;0.80;;;;;;;12.56;60.12;98267.75;5075479;28;20021;-72
2021/05/21 05:44:21;;;;;;;1.25;0.60;;;;;;;12.81;59.83;98275.72;5076225;28;20492;-77
2021/05/21 05:46:46;;;;;;;1.60;0.70;;;;;;;12.84;59.99;98265.25;5075627;28;20074;-77
2021/05/21 05:49:12;;;;;;;1.45;0.70;;;;;;;12.98;59.29;98270.47;5059016;28;20039;-74
2021/05/21 05:51:37;;;;;;;4.70;0.90;;;;;;;13.02;58.98;98271.66;5074932;28;20162;-75
2021/05/21 05:54:03;;;;;;;1.17;0.70;;;;;;;13.04;58.65;98259.50;5070936;28;20024;-73
2021/05/21 05:56:29;;;;;;;1.85;0.60;;;;;;;13.21;58.58;98264.28;5061994;28;20028;-75
2021/05/21 05:58:54;;;;;;;2.17;0.63;;;;;;;13.29;58.08;98278.38;5082133;28;20032;-73
2021/05/21 06:01:20;;;;;;;1.55;0.85;;;;;;;13.34;58.27;98255.94;5086133;28;20028;-73
2021/05/21 06:03:45;;;;;;;2.28;0.80;;;;;;;13.54;57.71;98266.47;5090194;28;20544;-73
2021/05/21 06:06:11;;;;;;;1.77;0.75;;;;;;;13.60;57.39;98273.69;5083655;28;20094;-73
2021/05/21 06:08:36;;;;;;;2.10;0.70;;;;;;;13.90;57.19;98270.00;5078487;28;20095;-73
2021/05/21 06:11:01;;;;;;;2.55;1.00;;;;;;;14.00;56.69;98248.47;5075550;28;20105;-73
2021/05/21 06:13:27;;;;;;;1.27;0.73;;;;;;;14.06;56.09;98250.22;5079772;28;20028;-73
2021/05/21 06:15:53;;;;;;;1.85;0.60;;;;;;;14.38;55.66;98257.97;5066136;28;20214;-75
2021/05/21 06:18:19;;;;;;;2.97;1.00;;;;;;;14.58;55.05;98258.41;5081069;28;20036;-73
2021/05/21 06:20:45;;;;;;;2.97;1.02;;;;;;;14.93;54.72;98257.41;5061382;28;20040;-73
2021/05/21 06:23:10;;;;;;;1.83;0.60;;;;;;;14.92;54.25;98249.50;5055500;28;20085;-73
2021/05/21 06:28:19;;;;;;;4.45;1.35;;;;;;;14.68;55.06;98244.97;5076653;28;20025;-70
2021/05/21 06:30:44;;;;;;;1.20;0.70;;;;;;;14.58;55.09;98239.34;5083565;28;20067;-76
2021/05/21 06:33:09;;;;;;;2.50;1.20;;;;;;;14.67;54.94;98245.22;5078596;28;20457;-70
2021/05/21 06:35:35;;;;;;;2.85;0.88;;;;;;;14.70;55.27;98244.75;5062460;28;20086;-78
2021/05/21 06:38:00;;;;;;;1.58;0.60;;;;;;;14.87;54.29;98223.81;5068918;28;20035;-80
2021/05/21 06:40:26;;;;;;;1.13;0.70;;;;;;;15.04;54.45;98233.91;5073431;28;20092;-80
2021/05/21 06:42:51;;;;;;;2.13;0.60;;;;;;;15.08;54.59;98218.72;5065601;28;20017;-77
2021/05/21 06:45:16;;;;;;;3.75;0.70;;;;;;;15.02;54.13;98215.09;5068636;28;20016;-79
2021/05/21 06:47:43;;;;;;;2.28;0.70;;;;;;;15.01;54.08;98221.63;5059794;28;20017;-71
2021/05/21 06:50:09;;;;;;;5.45;0.60;;;;;;;14.86;54.11;98205.81;5081589;28;20050;-72
2021/05/21 06:52:34;;;;;;;1.88;0.70;;;;;;;15.02;53.73;98203.38;5094101;28;20381;-76
2021/05/21 06:55:00;;;;;;;0.82;0.50;;;;;;;15.20;53.48;98215.94;5067481;28;20024;-76
2021/05/21 06:57:25;;;;;;;0.98;0.63;;;;;;;14.90;54.11;98206.16;5061271;28;20033;-72
2021/05/21 06:59:51;;;;;;;1.35;0.60;;;;;;;15.07;53.12;98217.91;5056178;28;20028;-73
2021/05/21 07:02:16;;;;;;;2.70;0.90;;;;;;;14.94;54.31;98211.94;5083159;28;20053;-72
2021/05/21 07:04:42;;;;;;;6.60;1.40;;;;;;;14.94;54.47;98207.31;5082562;28;20646;-72
2021/05/21 07:07:07;;;;;;;0.70;0.60;;;;;;;15.12;53.44;98188.00;5084181;28;20020;-74
2021/05/21 07:09:32;;;;;;;5.22;0.90;;;;;;;15.30;53.98;98203.28;5074743;28;20024;-74
2021/05/21 07:11:57;;;;;;;0.63;0.55;;;;;;;15.55;52.94;98191.91;5075748;28;20374;-73
2021/05/21 07:14:23;;;;;;;0.90;0.40;;;;;;;15.84;51.75;98182.81;5068657;28;20488;-73
2021/05/21 07:16:48;;;;;;;1.13;0.50;;;;;;;15.83;52.32;98184.72;5076084;28;20029;-73
2021/05/21 07:19:17;;;;;;;1.65;0.70;;;;;;;15.89;51.56;98185.59;5055104;28;20063;-70
2021/05/21 07:21:43;;;;;;;2.75;0.50;;;;;;;15.66;52.57;98186.63;5076703;28;20024;-76
2021/05/21 07:24:09;;;;;;;1.50;0.50;;;;;;;15.61;52.67;98181.91;5081520;28;20055;-74
2021/05/21 07:26:34;;;;;;;0.93;0.60;;;;;;;15.36;53.19;98190.56;5067160;28;20172;-75
2021/05/21 07:29:00;;;;;;;2.08;0.80;;;;;;;15.55;53.47;98182.94;5057574;28;20032;-73
2021/05/21 07:31:30;;;;;;;1.20;0.70;;;;;;;15.45;52.95;98166.41;5061046;28;20119;-74
2021/05/21 07:33:56;;;;;;;4.63;0.80;;;;;;;15.45;52.71;98190.94;5074618;28;20020;-75
2021/05/21 07:36:23;;;;;;;1.90;0.50;;;;;;;15.62;52.51;98190.94;5056633;28;20036;-75
2021/05/21 07:38:52;;;;;;;1.02;0.60;;;;;;;15.63;52.80;98184.41;5055110;28;20097;-70
2021/05/21 07:41:22;;;;;;;1.65;0.80;;;;;;;15.51;52.57;98190.78;5080586;28;20035;-70
2021/05/21 07:43:47;;;;;;;1.15;0.70;;;;;;;15.66;52.28;98186.63;5077354;28;20038;-69
2021/05/21 07:46:13;;;;;;;4.10;1.02;;;;;;;15.71;52.37;98189.44;5072286;28;20025;-69
2021/05/21 07:48:38;;;;;;;3.92;0.70;;;;;;;15.63;52.54;98200.75;5072366;28;20048;-69
2021/05/21 07:51:03;;;;;;;1.15;0.50;;;;;;;15.47;53.01;98202.44;5073407;28;20499;-70
2021/05/21 07:53:31;;;;;;;1.52;0.47;;;;;;;15.43;53.36;98193.94;5075496;28;20027;-70
2021/05/21 07:55:58;;;;;;;3.58;1.00;;;;;;;15.32;53.71;98200.28;5072368;28;20474;-70
2021/05/21 07:58:23;;;;;;;8.75;0.60;;;;;;;15.25;53.50;98211.38;5072279;28;20032;-70
2021/05/21 08:00:49;;;;;;;0.95;0.57;;;;;;;15.15;53.44;98199.50;5083868;28;20029;-70
2021/05/21 08:03:15;;;;;;;1.40;0.60;;;;;;;15.09;54.32;98198.56;5080839;28;20441;-69
2021/05/21 08:05:40;;;;;;;1.40;0.70;;;;;;;15.06;53.86;98205.34;5072465;28;20024;-69
2021/05/21 08:08:06;;;;;;;1.98;0.47;;;;;;;15.04;54.31;98195.78;5072200;28;20465;-70
2021/05/21 08:10:31;;;;;;;1.92;0.52;;;;;;;14.93;54.21;98189.31;5070248;28;20630;-70
2021/05/21 08:12:56;;;;;;;2.38;0.50;;;;;;;14.94;54.42;98185.53;5076503;28;20107;-69
2021/05/21 08:15:21;;;;;;;2.63;0.40;;;;;;;15.01;53.39;98175.31;5075811;28;20031;-67
2021/05/21 08:17:47;;;;;;;3.38;0.68;;;;;;;15.06;53.25;98178.13;5084818;28;20023;-69
2021/05/21 08:20:13;;;;;;;1.67;0.55;;;;;;;15.08;53.36;98173.22;5092635;28;20028;-69
2021/05/21 08:22:38;;;;;;;1.17;0.55;;;;;;;15.03;52.80;98167.69;5074671;28;20021;-69
2021/05/21 08:25:05;;;;;;;4.63;0.70;;;;;;;15.16;52.95;98161.09;5076221;28;20402;-70
2021/05/21 08:27:30;;;;;;;1.30;0.50;;;;;;;15.10;52.51;98154.72;5071658;28;20111;-71
2021/05/21 08:29:56;;;;;;;3.60;0.60;;;;;;;15.18;52.44;98164.38;5076630;28;20251;-76
2021/05/21 08:32:21;;;;;;;4.13;0.52;;;;;;;15.18;52.19;98158.94;5062451;28;20036;-75
2021/05/21 08:34:46;;;;;;;0.63;0.40;;;;;;;15.29;52.25;98146.28;5064105;28;20028;-74
2021/05/21 08:37:11;;;;;;;1.55;0.55;;;;;;;15.38;51.83;98154.84;5055297;28;20024;-73
2021/05/21 08:39:39;;;;;;;1.08;0.60;;;;;;;15.25;51.89;98134.25;5074819;28;20462;-73
2021/05/21 08:42:06;;;;;;;1.25;0.55;;;;;;;15.40;52.53;98164.44;5072879;28;20141;-73
2021/05/21 08:44:33;;;;;;;1.10;0.68;;;;;;;15.40;52.57;98166.34;5071867;28;20013;-69
2021/05/21 08:46:59;;;;;;;1.95;0.65;;;;;;;15.32;53.20;98167.59;5085231;28;20109;-69
2021/05/21 08:49:25;;;;;;;1.45;0.50;;;;;;;15.46;52.73;98162.63;5085959;28;20030;-73
2021/05/21 08:51:50;;;;;;;2.80;0.55;;;;;;;15.43;52.35;98160.38;5082806;28;20027;-73
2021/05/21 08:54:16;;;;;;;1.02;0.60;;;;;;;15.31;52.83;98174.13;5071090;28;20037;-73
2021/05/21 08:56:43;;;;;;;1.88;0.60;;;;;;;15.37;52.75;98166.84;5061445;28;20048;-73
2021/05/21 08:59:09;;;;;;;0.52;0.50;;;;;;;15.26;53.45;98155.78;5066861;28;20024;-73
2021/05/21 09:01:51;;;;;;;6.85;0.80;;;;;;;15.27;53.49;98168.38;5079518;28;20032;-72
2021/05/21 09:04:16;;;;;;;2.67;0.50;;;;;;;15.14;53.14;98157.78;5073903;28;20472;-73
2021/05/21 09:06:41;;;;;;;1.70;0.60;;;;;;;15.23;53.45;98150.84;5087753;28;20049;-72
2021/05/21 09:09:10;;;;;;;2.03;0.70;;;;;;;15.28;52.97;98180.09;5082043;28;20027;-72
2021/05/21 09:11:41;;;;;;;3.30;0.70;;;;;;;15.31;53.41;98168.69;5069627;28;20047;-76
2021/05/21 09:14:10;;;;;;;1.42;0.50;;;;;;;15.30;53.57;98167.84;5113125;22;20109;-74
2021/05/21 09:16:38;;;;;;;1.38;0.70;;;;;;;15.17;53.84;98162.75;5060035;28;20466;-70
2021/05/21 09:19:04;;;;;;;3.13;0.82;;;;;;;15.25;53.46;98166.97;5061336;28;20033;-69
2021/05/21 09:21:58;;;;;;;5.00;0.93;;;;;;;15.32;53.72;98159.41;5075602;28;20035;-68
2021/05/21 09:24:29;;;;;;;2.47;0.50;;;;;;;15.37;53.34;98161.41;5055073;28;20020;-69
2021/05/21 09:26:56;;;;;;;4.30;0.50;;;;;;;15.42;53.13;98162.28;5059262;28;20025;-68
2021/05/21 09:29:32;;;;;;;3.13;0.50;;;;;;;15.47;52.23;98156.91;5066565;28;20466;-69
2021/05/21 09:31:57;;;;;;;1.67;0.60;;;;;;;15.50;52.21;98148.22;5063969;28;20036;-72
2021/05/21 09:34:31;;;;;;;2.03;0.82;;;;;;;15.57;51.84;98140.69;5070521;28;20028;-72
2021/05/21 09:36:57;;;;;;;2.95;0.85;;;;;;;15.65;51.38;98154.97;5060095;28;20060;-72
2021/05/21 09:39:23;;;;;;;2.33;0.90;;;;;;;15.66;52.02;98153.91;5055010;28;20060;-73
2021/05/21 09:41:57;;;;;;;5.20;1.00;;;;;;;15.83;51.87;98170.25;5057617;28;20035;-67
2021/05/21 09:44:24;;;;;;;2.20;0.50;;;;;;;15.75;52.04;98153.25;5061190;28;20016;-67
2021/05/21 09:46:50;;;;;;;1.00;0.43;;;;;;;15.21;52.33;98076.69;5065910;28;20060;-73
2021/05/21 09:49:37;;;;;;;3.08;0.60;;;;;;;15.87;51.63;98185.84;5058259;28;20029;-68
2021/05/21 09:52:05;;;;;;;10.05;0.77;;;;;;;15.85;51.43;98174.38;5055495;28;20051;-70
2021/05/21 09:54:56;;;;;;;0.82;0.50;;;;;;;15.98;51.23;98187.66;5056936;28;20057;-66
2021/05/21 09:57:33;;;;;;;1.75;0.50;;;;;;;16.19;51.06;98190.59;5061831;28;20371;-71
2021/05/21 09:59:58;;;;;;;1.10;0.40;;;;;;;16.16;51.25;98177.47;5060601;28;20025;-70
2021/05/21 10:02:29;;;;;;;4.25;0.70;;;;;;;16.35;51.02;98189.72;5062496;28;20555;-70
2021/05/21 10:04:55;;;;;;;2.90;0.50;;;;;;;16.46;50.79;98203.50;5059047;28;20108;-69
2021/05/21 10:07:21;;;;;;;2.30;0.45;;;;;;;16.44;50.37;98201.00;5071601;28;20032;-72
2021/05/21 10:09:47;;;;;;;1.80;0.50;;;;;;;16.56;50.94;98193.50;5055075;28;20024;-72
2021/05/21 10:12:13;;;;;;;3.92;0.55;;;;;;;16.57;51.25;98194.31;5063702;28;20543;-69
2021/05/21 10:14:39;;;;;;;4.38;0.52;;;;;;;16.29;50.88;98162.59;5055018;28;20020;-74
2021/05/21 10:17:06;;;;;;;2.13;0.70;;;;;;;16.13;51.27;98186.16;5058475;28;20021;-73
2021/05/21 10:19:32;;;;;;;4.55;0.70;;;;;;;16.19;51.75;98185.13;5071512;28;20089;-71
2021/05/21 10:21:59;;;;;;;2.25;0.60;;;;;;;16.28;51.34;98183.63;5053461;28;20078;-72
2021/05/21 10:24:31;;;;;;;5.45;0.80;;;;;;;16.07;51.81;98189.94;5058298;28;20104;-72
2021/05/21 10:26:58;;;;;;;1.15;0.40;;;;;;;15.97;52.40;98196.06;5062427;28;20080;-73
2021/05/21 10:29:26;;;;;;;1.45;0.40;;;;;;;15.92;52.04;98169.53;5068443;28;20074;-71
2021/05/21 10:32:02;;;;;;;3.53;1.40;;;;;;;15.98;52.30;98182.19;5059981;28;20612;-72
2021/05/21 10:34:27;;;;;;;4.40;0.70;;;;;;;16.11;52.06;98172.81;5055474;28;20024;-73
2021/05/21 10:37:13;;;;;;;3.80;0.60;;;;;;;16.07;52.03;98177.09;5056231;28;20036;-72
2021/05/21 10:39:56;;;;;;;4.20;0.45;;;;;;;16.00;53.28;98176.47;5054955;28;20028;-69
2021/05/21 10:42:21;;;;;;;1.20;0.38;;;;;;;16.10;52.71;98170.31;5055647;28;20020;-72
2021/05/21 10:44:50;;;;;;;1.20;0.43;;;;;;;16.14;52.25;98164.09;5057099;28;20032;-72
2021/05/21 10:47:22;;;;;;;4.47;0.50;;;;;;;16.18;52.61;98183.50;5057178;28;20071;-72
2021/05/21 10:49:51;;;;;;;2.28;0.40;;;;;;;16.26;52.13;98179.50;5059252;28;20401;-69
2021/05/21 10:52:19;;;;;;;3.30;0.40;;;;;;;16.12;52.42;98173.63;5060729;28;20029;-69
2021/05/21 10:54:49;;;;;;;0.80;0.47;;;;;;;16.36;52.64;98183.16;5065310;28;20020;-73
2021/05/21 10:57:16;;;;;;;1.13;0.40;;;;;;;16.27;53.19;98208.44;5056263;28;20033;-68
2021/05/21 10:59:49;;;;;;;2.78;0.50;;;;;;;16.51;52.68;98187.97;5052791;28;20534;-75
2021/05/21 11:02:14;;;;;;;0.60;0.20;;;;;;;16.19;53.22;98193.34;5061755;28;20024;-72
2021/05/21 11:04:40;;;;;;;2.30;0.20;;;;;;;16.29;53.35;98185.25;5058800;28;20170;-74
2021/05/21 11:07:06;;;;;;;1.50;0.50;;;;;;;16.84;52.97;98194.34;5068397;28;20533;-69
2021/05/21 11:09:32;;;;;;;2.13;0.40;;;;;;;17.00;51.68;98187.09;5072670;28;20017;-74
2021/05/21 11:11:57;;;;;;;4.28;0.40;;;;;;;17.23;51.37;98199.59;5066931;28;20389;-76
2021/05/21 11:14:26;;;;;;;0.57;0.20;;;;;;;17.36;50.94;98193.66;5054419;28;20021;-74
2021/05/21 11:16:53;;;;;;;0.93;0.30;;;;;;;17.55;51.28;98190.50;5070176;28;20775;-75
2021/05/21 11:19:20;;;;;;;4.68;0.30;;;;;;;17.59;49.88;98187.00;5051390;28;20024;-72
2021/05/21 11:24:42;;;;;;;0.30;0.30;;;;;;;17.47;51.14;98186.38;5666079;22;20660;-77
2021/05/21 11:27:11;;;;;;;2.08;0.30;;;;;;;17.47;51.31;98183.63;5092626;28;20388;-75
2021/05/21 11:29:41;;;;;;;1.85;0.73;;;;;;;17.84;49.98;98188.25;5074777;28;20035;-75
2021/05/21 11:32:06;;;;;;;1.27;0.40;;;;;;;17.52;51.02;98189.13;5093719;28;20073;-76
2021/05/21 11:34:32;;;;;;;3.05;0.65;;;;;;;17.42;51.65;98180.84;5081261;28;20039;-76
2021/05/21 11:36:57;;;;;;;2.55;0.60;;;;;;;17.70;50.80;98191.44;5099891;22;20084;-76